CheckWX is a tool to help pilots better visualize weather data.  It is not intended as a substitute for an official pre-flight weather briefing.

14:20:44 UTC

EGLC METAR
London City Airport
London, United Kingdom
Current

1 hour ago

EGLC 161320Z AUTO VRB04KT 9999 NCD 26/09 Q1018
Observed
Jul-16 @ 13:20 UTC
Wind
  • Variable at 4 KTS
Visibility
10,000+ meters
Flight Rules
VFR
Cloud Levels
  • Clear skies
Temperature
26°C / 79°F
Dewpoint
C / 48°F
Humidity
34%
Altimeter
30.06" Hg
Pressure
1017.92 hPa
Previous

2 hours ago

EGLC 161250Z AUTO VRB05KT 9999 NCD 26/10 Q1018
Observed
Jul-16 @ 12:50 UTC
Wind
  • Variable at 5 KTS
Visibility
10,000+ meters
Flight Rules
VFR
Cloud Levels
  • Clear skies
Temperature
26°C / 79°F
Dewpoint
10°C / 50°F
Humidity
37%
Altimeter
30.06" Hg
Pressure
1017.92 hPa
Previous

2 hours ago

EGLC 161220Z AUTO 14006KT 110V210 9999 NCD 25/09 Q1019
Observed
Jul-16 @ 12:20 UTC
Wind
  • 140° at 6 KTS
Visibility
10,000+ meters
Flight Rules
VFR
Cloud Levels
  • Clear skies
Temperature
25°C / 77°F
Dewpoint
C / 48°F
Humidity
36%
Altimeter
30.09" Hg
Pressure
1018.92 hPa